A- A+ FrançaisEnglishEspañol中国

最近的 EPKP Pobiednik WielkiLFBT Tarbes-Lourdes-PyrénéesCYXZ WawaTFFF LamentinEBTN Goetsenhoven MilEBBE Beauvechain AB

飞行员的航空天气,使用METAR(气象机场报告)进行的飞行准备和TAF(终端机场预报:针对以下情况的短期天气预报)航空)。 以及其他资源,例如VAC(目视进近图)和NOTAM(通知飞行员)以进行预试飞行.

METAR, TAF, VAC, NOTAM Eastmain River机场 (加拿大) / OACI CZEM/ IATA ZEM

它位于附近 Eastmain River (加拿大) 可提供5天天气预报 Eastmain 在 25 km, Wemindji 在 79 km, Waskaganish 在 115 km, Chisasibi 在 161 km,

机场的高度为 Eastmain River机场的

7 m = 23 ft

附近的机场 Eastmain River机场的

跑道 Eastmain River机场的

METAR Eastmain River机场的 - CZEM

CZEM 221400Z 32017G26KT 1SM -SN DRSN OVC008 M12/M15 A2976 RMK SN4SF4 SLP081

Eastmain River机场METAR解码 (加拿大)

CZEM机场发行的METAR日期2020年04月22日至14:00 GMT, 警告:此METAR已过期, 已于 37 天 9 小时 57 分钟.

可见度为1.6 km = 1 sm.

温度为-12°C = 10 °F 露点为-15°C = 5 °F 。 这相当于78%的相对湿度。.

QNH是1008 hPa = 29.77 inHg

的风17 kt = 31 km/h 阵风在26 kt = 48 km/h, 风向为320°.

云:多云800 ft = 240 m.

备注 雪4SF4 SLP081

TAF Eastmain River机场的 - CZEM

没有TAF

Eastmain River机场的NOTAM

提供的NOTAM不能保证其时事性。 在将其用于飞行准备或在飞行期间使用之前,飞行员是唯一负责验证其有效性的人员。

NOTAM Non-directional radio beacon (从 2020年03月05日 时间上午 14:41 到 2020年06月05日 时间上午 23:59)

N0629/20 NOTAMR N0581/20nQ) CZUL/QNBAS/IV/BO/AE/000/999/5214N07831W025nA) CZEM B) 2003051441 C) 2006042359nE) EASTMAIN NDB ZEM 338KHZ UNMONITOREDnCREATED: 05 Mar 2020 14:41:00 nSOURCE: CYHQYNYX

数据源